KHUL

Details ICAO KHUL (HUL)
Name HOULTON INTL
Region United States
Timezone America/New_York (UTC-4.0)
Plans Departing 5
Arriving 6
Stats Elevation 489 ft / 149 m (AMSL)
Location 46.123686° -67.792451°
Runways 2
Magnetic Variation 16.834° W
Sunrise 2018-05-22 08:52:38 UTC / 2018-05-22 04:52:38 Local
Sunset 2018-05-23 00:05:55 UTC / 2018-05-22 20:05:55 Local
Advertisement - Login to hide

Runways

ID Width Length Bearing (true) Bearing (mag) Surface Threshold Offset Overrun Length
01 150 ft / 46 m 5,001 ft / 1,524 m 351.95° 8.78° Asphalt 0 ft / 0 m 0 ft / 0 m
05 150 ft / 46 m 5,015 ft / 1,529 m 31.13° 47.96° Asphalt 0 ft / 0 m 0 ft / 0 m
19 150 ft / 46 m 5,001 ft / 1,524 m 171.95° 188.78° Asphalt 0 ft / 0 m 0 ft / 0 m
23 150 ft / 46 m 5,015 ft / 1,529 m 211.14° 227.97° Asphalt 0 ft / 0 m 0 ft / 0 m

Map

Weather


0- 5 10 15 20 25 30 35+ Temperature / ° C

Clouds and Precipitation
Forecast for 2018-05-23 06:00 UTC. Updated 22 minutes ago

Ground ~20,000 ft ~40,000 ft Winds

METAR

KHUL 230253Z AUTO 21006KT 10SM CLR 16/07 A2986 RMK AO2 SLP113 T01610072 58012

TAF

KHUL 222333Z 2300/2324 21010KT P6SM BKN100 FM230400 22006KT P6SM VCSH OVC025 FM230600 21007KT P6SM BKN015 FM231400 31007KT 5SM -SHRA BKN015 FM231900 36010KT P6SM VCSH BKN025 FM232100 01006KT P6SM SCT250

Frequencies

Recorded 132.02 MHz ASOS
Unicom 122.80 MHz CTAF/UNICOM
Warning: Do not use this data for real-world aviation or navigation. No guarantee of current accuracy is given.